Terminal Aerodrome Forecast
Issued by NWS

Home | Current Version | Previous Version | Graphics & Text | Print | Product List | Glossary On
Versions: 1 2 3 4 5 6 7 8 9 10 11 12 13 14 15 16 17
110
FTUS41 KCLE 101125
TAFFDY
TAF
KFDY 101125Z 1012/1112 23012G20KT P6SM BKN050
     FM102300 25008KT P6SM OVC040
     FM110500 27007KT P6SM OVC025=

USA.gov is the U.S. government's official web portal to all federal, state and local government web resources and services.